METAR Data

Data at: 2129 UTC 01 Dec 2021

METAR for:CYCX (Gagetown (MIL), NB, CA)
Text:CYCX 012100Z 20003KT 15SM FEW075 M02/M03 A2998 RMK AC2 DA-1891FT SLP156
Temperature: -2.0°C ( 28°F)
Dewpoint: -3.0°C ( 27°F) [RH = 93%]
Pressure (altimeter):29.98 inches Hg (1015.3 mb) [Sea level pressure: 1015.6 mb]
Winds:from the SSW (200 degrees) at 3 MPH (3 knots; 1.5 m/s)
Visibility: 15 sm ( 24 km)
Ceiling:at least 12,000 feet AGL
Clouds: few clouds at 7500 feet AGL